createdAt,value
2023-03-02T00:02:21.263Z,8.95
2023-03-02T00:04:52.891Z,8.70
2023-03-02T00:07:23.771Z,8.50
2023-03-02T00:09:50.747Z,9.50
2023-03-02T00:12:17.393Z,9.68
2023-03-02T00:14:44.252Z,7.82
2023-03-02T00:17:10.810Z,7.55
2023-03-02T00:19:37.696Z,8.88
2023-03-02T00:22:04.522Z,8.27
2023-03-02T00:24:31.274Z,8.48
2023-03-02T00:26:57.826Z,8.07
2023-03-02T00:29:24.509Z,8.70
2023-03-02T00:31:51.248Z,8.93
2023-03-02T00:34:18.003Z,8.43
2023-03-02T00:36:44.744Z,7.97
2023-03-02T00:39:11.322Z,8.00
2023-03-02T00:41:38.325Z,8.70
2023-03-02T00:44:04.954Z,8.52
2023-03-02T00:46:31.830Z,8.27
2023-03-02T00:48:59.032Z,8.00
2023-03-02T00:51:25.602Z,7.82
2023-03-02T00:53:52.160Z,8.32
2023-03-02T00:56:18.737Z,7.50
2023-03-02T00:58:49.545Z,8.15
2023-03-02T01:01:18.571Z,8.63
2023-03-02T01:03:48.627Z,8.93
2023-03-02T01:06:18.201Z,8.45
2023-03-02T01:08:45.205Z,8.85
2023-03-02T01:11:17.054Z,7.95
2023-03-02T01:13:44.055Z,8.63
2023-03-02T01:16:11.853Z,8.23
2023-03-02T01:18:39.932Z,8.85
2023-03-02T01:21:09.456Z,8.27
2023-03-02T01:23:36.028Z,7.82
2023-03-02T01:26:02.697Z,8.50
2023-03-02T01:28:29.250Z,9.05
2023-03-02T01:30:55.815Z,8.88
2023-03-02T01:33:23.090Z,8.25
2023-03-02T01:35:49.692Z,9.43
2023-03-02T01:38:16.586Z,8.40
2023-03-02T01:40:43.139Z,7.90
2023-03-02T01:43:13.631Z,8.85
2023-03-02T01:45:59.718Z,8.82
2023-03-02T01:48:45.134Z,8.27
2023-03-02T01:51:18.164Z,8.93
2023-03-02T01:53:46.863Z,9.05
2023-03-02T01:56:16.172Z,8.95
2023-03-02T01:58:43.015Z,8.15
2023-03-02T02:01:15.925Z,8.13
2023-03-02T02:03:48.621Z,8.75
2023-03-02T02:06:26.897Z,8.50
2023-03-02T02:08:55.020Z,9.20
2023-03-02T02:11:21.705Z,8.55
2023-03-02T02:13:54.182Z,7.93
2023-03-02T02:16:20.898Z,9.05
2023-03-02T02:18:47.572Z,9.30
2023-03-02T02:21:14.401Z,8.63
2023-03-02T02:23:49.858Z,9.27
2023-03-02T02:26:23.530Z,9.15
2023-03-02T02:29:07.825Z,9.45
2023-03-02T02:31:37.533Z,9.07
2023-03-02T02:34:11.154Z,8.77
2023-03-02T02:36:40.799Z,9.70
2023-03-02T02:39:18.569Z,9.20
2023-03-02T02:41:46.210Z,8.75
2023-03-02T02:44:15.744Z,9.02
2023-03-02T02:46:42.866Z,9.10
2023-03-02T02:49:19.998Z,8.52
2023-03-02T02:51:46.561Z,8.82
2023-03-02T02:54:17.597Z,8.80
2023-03-02T02:56:46.972Z,8.77
2023-03-02T02:59:17.455Z,8.93
2023-03-02T03:01:45.860Z,8.93
2023-03-02T03:04:17.186Z,9.23
2023-03-02T03:09:24.821Z,8.23
2023-03-02T03:12:03.242Z,8.38
2023-03-02T03:14:40.574Z,8.82
2023-03-02T03:17:12.353Z,8.23
2023-03-02T03:19:45.480Z,8.85
2023-03-02T03:22:14.593Z,8.93
2023-03-02T03:24:42.560Z,9.40
2023-03-02T03:27:11.107Z,9.30
2023-03-02T03:29:42.508Z,8.70
2023-03-02T03:32:11.470Z,8.52
2023-03-02T03:34:40.639Z,8.45
2023-03-02T03:37:17.593Z,8.57
2023-03-02T03:39:44.930Z,7.60
2023-03-02T03:42:12.688Z,8.95
2023-03-02T03:44:39.273Z,7.70
2023-03-02T03:47:06.091Z,9.20
2023-03-02T03:49:36.799Z,8.70
2023-03-02T03:52:05.424Z,8.80
2023-03-02T03:54:32.270Z,9.05
2023-03-02T03:56:59.246Z,7.47
2023-03-02T03:59:26.211Z,8.52
2023-03-02T04:02:00.384Z,7.93
2023-03-02T04:04:35.225Z,8.15
2023-03-02T04:07:09.696Z,8.43
2023-03-02T04:09:40.156Z,8.18
2023-03-02T04:12:11.717Z,8.55
2023-03-02T04:14:41.686Z,8.68
2023-03-02T04:17:08.248Z,8.77
2023-03-02T04:19:39.112Z,7.78
2023-03-02T04:22:06.136Z,7.47
2023-03-02T04:24:33.382Z,8.02
2023-03-02T04:27:02.269Z,8.27
2023-03-02T04:29:29.367Z,7.95
2023-03-02T04:31:56.119Z,7.82
2023-03-02T04:34:26.423Z,7.88
2023-03-02T04:36:53.718Z,8.07
2023-03-02T04:39:20.899Z,7.70
2023-03-02T04:41:50.668Z,8.35
2023-03-02T04:44:18.181Z,8.85
2023-03-02T04:46:45.409Z,8.10
2023-03-02T04:49:13.868Z,8.25
2023-03-02T04:51:42.692Z,8.20
2023-03-02T04:54:18.720Z,8.05
2023-03-02T04:56:48.486Z,8.20
2023-03-02T04:59:16.716Z,7.78
2023-03-02T05:01:44.440Z,8.30
2023-03-02T05:04:11.793Z,8.23
2023-03-02T05:06:38.606Z,7.28
2023-03-02T05:09:05.477Z,7.95
2023-03-02T05:11:32.855Z,8.73
2023-03-02T05:14:02.082Z,7.40
2023-03-02T05:16:32.381Z,7.88
2023-03-02T05:19:00.010Z,7.78
2023-03-02T05:21:26.843Z,7.60
2023-03-02T05:23:54.335Z,7.32
2023-03-02T05:26:20.939Z,7.93
2023-03-02T05:28:47.652Z,7.70
2023-03-02T05:31:28.386Z,7.40
2023-03-02T05:33:54.931Z,7.80
2023-03-02T05:36:23.246Z,7.35
2023-03-02T05:38:50.007Z,7.07
2023-03-02T05:41:16.659Z,7.25
2023-03-02T05:43:43.442Z,6.82
2023-03-02T05:46:10.328Z,7.55
2023-03-02T05:48:37.300Z,7.13
2023-03-02T05:51:04.602Z,7.80
2023-03-02T05:53:31.563Z,7.88
2023-03-02T05:55:58.163Z,7.78
2023-03-02T05:58:25.003Z,7.35
2023-03-02T06:00:51.760Z,7.57
2023-03-02T06:03:18.466Z,6.97
2023-03-02T06:05:45.180Z,6.88
2023-03-02T06:08:11.712Z,7.18
2023-03-02T06:10:38.556Z,7.13
2023-03-02T06:13:05.564Z,7.05
2023-03-02T06:15:32.264Z,7.47
2023-03-02T06:17:59.033Z,8.32
2023-03-02T06:20:30.168Z,7.28
2023-03-02T06:22:56.675Z,7.82
2023-03-02T06:25:24.176Z,7.50
2023-03-02T06:27:51.728Z,7.45
2023-03-02T06:30:21.723Z,7.28
2023-03-02T06:32:48.322Z,6.10
2023-03-02T06:35:15.068Z,7.20
2023-03-02T06:37:44.045Z,7.45
2023-03-02T06:40:13.670Z,7.25
2023-03-02T06:42:41.319Z,8.07
2023-03-02T06:45:09.311Z,7.20
2023-03-02T06:47:35.892Z,7.55
2023-03-02T06:50:03.863Z,7.50
2023-03-02T06:52:30.681Z,8.10
2023-03-02T06:54:57.249Z,7.85
2023-03-02T06:57:23.940Z,8.05
2023-03-02T06:59:50.581Z,7.97
2023-03-02T07:02:17.093Z,8.25
2023-03-02T07:04:43.632Z,7.82
2023-03-02T07:07:10.143Z,8.52
2023-03-02T07:09:37.069Z,8.80
2023-03-02T07:12:03.873Z,7.32
2023-03-02T07:14:30.669Z,8.65
2023-03-02T07:16:57.538Z,7.85
2023-03-02T07:19:24.242Z,7.90
2023-03-02T07:21:50.781Z,8.02
2023-03-02T07:24:17.426Z,8.38
2023-03-02T07:26:44.001Z,8.02
2023-03-02T07:29:10.622Z,7.93
2023-03-02T07:31:37.162Z,7.82
2023-03-02T07:34:03.760Z,8.35
2023-03-02T07:36:30.339Z,8.05
2023-03-02T07:38:57.522Z,8.55
2023-03-02T07:41:24.251Z,7.65
2023-03-02T07:43:50.845Z,7.65
2023-03-02T07:46:17.463Z,7.72
2023-03-02T07:48:50.039Z,8.40
2023-03-02T07:51:19.964Z,7.22
2023-03-02T07:53:46.480Z,7.90
2023-03-02T07:56:13.001Z,6.78
2023-03-02T07:58:39.516Z,8.15
2023-03-02T08:01:06.237Z,8.50
2023-03-02T08:03:32.797Z,7.45
2023-03-02T08:05:59.328Z,8.25
2023-03-02T08:08:25.839Z,8.20
2023-03-02T08:10:52.449Z,6.80
2023-03-02T08:13:18.927Z,7.53
2023-03-02T08:15:45.450Z,7.80
2023-03-02T08:18:12.071Z,8.50
2023-03-02T08:20:38.752Z,7.88
2023-03-02T08:23:05.361Z,8.10
2023-03-02T08:25:31.952Z,7.97
2023-03-02T08:27:58.485Z,8.23
2023-03-02T08:30:25.378Z,7.95
2023-03-02T08:32:52.078Z,8.27
2023-03-02T08:35:18.607Z,7.68
2023-03-02T08:37:45.219Z,8.15
2023-03-02T08:40:12.128Z,8.05
2023-03-02T08:42:38.615Z,8.20
2023-03-02T08:45:05.685Z,9.40
2023-03-02T08:47:32.582Z,8.50
2023-03-02T08:49:59.240Z,8.15
2023-03-02T08:52:25.786Z,8.25
2023-03-02T08:54:52.493Z,8.35
2023-03-02T08:57:21.223Z,8.60
2023-03-02T08:59:48.108Z,7.90
2023-03-02T09:02:14.911Z,8.15
2023-03-02T09:04:41.606Z,9.35
2023-03-02T09:07:08.855Z,8.27
2023-03-02T09:09:35.736Z,9.13
2023-03-02T09:12:02.459Z,8.85
2023-03-02T09:14:29.025Z,8.75
2023-03-02T09:16:55.726Z,9.23
2023-03-02T09:19:22.332Z,9.10
2023-03-02T09:21:49.439Z,8.57
2023-03-02T09:24:16.335Z,9.48
2023-03-02T09:26:42.981Z,8.73
2023-03-02T09:29:09.698Z,9.13
2023-03-02T09:31:37.494Z,8.52
2023-03-02T09:34:04.781Z,7.68
2023-03-02T09:36:32.688Z,7.85
2023-03-02T09:38:59.538Z,8.60
2023-03-02T09:41:57.054Z,8.15
2023-03-02T09:44:33.939Z,8.90
2023-03-02T09:47:04.247Z,8.05
2023-03-02T09:49:58.277Z,9.37
2023-03-02T09:52:32.513Z,9.65
2023-03-02T09:55:16.173Z,9.25
2023-03-02T09:57:43.184Z,9.20
2023-03-02T10:00:19.874Z,9.35
2023-03-02T10:02:50.208Z,8.48
2023-03-02T10:05:24.564Z,7.68
2023-03-02T10:07:51.400Z,8.70
2023-03-02T10:10:27.315Z,9.10
2023-03-02T10:13:28.087Z,8.77
2023-03-02T10:16:19.243Z,8.85
2023-03-02T10:18:49.841Z,8.40
2023-03-02T10:21:27.865Z,8.65
2023-03-02T10:24:01.303Z,8.13
2023-03-02T10:26:36.990Z,8.20
2023-03-02T10:29:17.357Z,9.02
2023-03-02T10:31:45.995Z,9.05
2023-03-02T10:34:13.604Z,9.65
2023-03-02T10:36:44.715Z,8.52
2023-03-02T10:39:13.965Z,8.85
2023-03-02T10:41:45.676Z,8.77
2023-03-02T10:44:37.498Z,9.52
2023-03-02T10:47:05.453Z,8.57
2023-03-02T10:49:34.165Z,9.15
2023-03-02T10:52:05.153Z,8.57
2023-03-02T10:54:34.305Z,8.45
2023-03-02T10:57:03.962Z,8.35
2023-03-02T10:59:49.648Z,7.93
2023-03-02T11:02:25.119Z,8.07
2023-03-02T11:05:18.990Z,8.40
2023-03-02T11:07:53.718Z,8.18
2023-03-02T11:10:23.652Z,9.00
2023-03-02T11:12:52.875Z,9.80
2023-03-02T11:15:25.718Z,8.68
2023-03-02T11:18:04.194Z,8.27
2023-03-02T11:20:34.215Z,8.48
2023-03-02T11:23:10.424Z,8.82
2023-03-02T11:25:39.533Z,8.23
2023-03-02T11:28:41.773Z,8.38
2023-03-02T11:31:15.666Z,7.78
2023-03-02T11:33:51.944Z,8.65
2023-03-02T11:36:21.166Z,8.15
2023-03-02T11:38:50.636Z,8.07
2023-03-02T11:41:33.133Z,8.43
2023-03-02T11:44:02.158Z,8.02
2023-03-02T11:46:33.270Z,7.57
2023-03-02T11:49:07.761Z,9.13
2023-03-02T11:51:39.119Z,7.88
2023-03-02T11:54:41.304Z,7.38
2023-03-02T11:57:25.272Z,8.00
2023-03-02T11:59:52.672Z,8.70
2023-03-02T12:02:19.921Z,7.70
2023-03-02T12:04:47.830Z,7.38
2023-03-02T12:07:19.084Z,7.80
2023-03-02T12:12:33.671Z,8.18
2023-03-02T12:15:01.502Z,8.00
2023-03-02T12:17:28.015Z,7.38
2023-03-02T12:20:21.704Z,8.18
2023-03-02T12:22:48.267Z,7.80
2023-03-02T12:25:23.518Z,7.53
2023-03-02T12:27:53.003Z,7.07
2023-03-02T12:30:26.163Z,7.50
2023-03-02T12:33:11.225Z,7.53
2023-03-02T12:35:38.517Z,7.63
2023-03-02T12:38:08.175Z,7.70
2023-03-02T12:40:59.562Z,7.60
2023-03-02T12:43:26.857Z,7.45
2023-03-02T12:46:25.318Z,7.68
2023-03-02T12:49:27.207Z,7.80
2023-03-02T12:51:58.140Z,9.98
2023-03-02T12:54:35.013Z,8.85
2023-03-02T12:57:09.276Z,8.88
2023-03-02T12:59:36.292Z,7.07
2023-03-02T13:02:24.886Z,7.35
2023-03-02T13:04:54.430Z,8.05
2023-03-02T13:07:25.430Z,9.00
2023-03-02T13:09:56.622Z,7.72
2023-03-02T13:12:26.659Z,7.10
2023-03-02T13:14:57.463Z,7.30
2023-03-02T13:17:29.509Z,7.30
2023-03-02T13:19:57.051Z,7.32
2023-03-02T13:22:23.811Z,7.72
2023-03-02T13:24:57.721Z,6.72
2023-03-02T13:27:25.281Z,6.47
2023-03-02T13:29:52.812Z,7.10
2023-03-02T13:32:36.077Z,6.45
2023-03-02T13:35:03.798Z,6.10
2023-03-02T13:37:44.129Z,7.47
2023-03-02T13:40:23.170Z,6.80
2023-03-02T13:42:49.759Z,7.47
2023-03-02T13:45:32.530Z,7.45
2023-03-02T13:48:00.484Z,6.82
2023-03-02T13:50:29.224Z,7.18
2023-03-02T13:52:57.928Z,7.10
2023-03-02T13:55:24.868Z,6.78
2023-03-02T13:57:52.279Z,7.35
2023-03-02T14:00:26.926Z,7.15
2023-03-02T14:02:53.524Z,6.57
2023-03-02T14:05:26.602Z,7.28
2023-03-02T14:07:53.614Z,6.30
2023-03-02T14:10:20.528Z,7.25
2023-03-02T14:12:54.140Z,7.28
2023-03-02T14:15:21.179Z,6.70
2023-03-02T14:17:49.473Z,5.90
2023-03-02T14:20:19.457Z,5.45
2023-03-02T14:22:47.048Z,5.40
2023-03-02T14:25:14.017Z,5.00
2023-03-02T14:27:41.498Z,4.57
2023-03-02T14:30:19.468Z,5.07
2023-03-02T14:32:46.411Z,5.22
2023-03-02T14:35:16.262Z,6.45
2023-03-02T14:37:47.582Z,5.43
2023-03-02T14:40:17.634Z,4.95
2023-03-02T14:42:44.356Z,5.57
2023-03-02T14:45:11.933Z,5.90
2023-03-02T14:47:38.523Z,5.43
2023-03-02T14:50:05.454Z,5.22
2023-03-02T14:52:35.274Z,6.05
2023-03-02T14:55:05.892Z,6.25
2023-03-02T14:57:36.299Z,5.10
2023-03-02T15:00:06.101Z,6.63
2023-03-02T15:02:32.910Z,6.93
2023-03-02T15:04:59.537Z,7.03
2023-03-02T15:07:27.772Z,6.93
2023-03-02T15:09:56.068Z,6.63
2023-03-02T15:12:22.605Z,6.65
2023-03-02T15:14:49.361Z,6.43
2023-03-02T15:17:15.982Z,6.93
2023-03-02T15:19:42.712Z,8.30
2023-03-02T15:22:09.664Z,8.27
2023-03-02T15:24:36.844Z,8.10
2023-03-02T15:27:03.811Z,6.68
2023-03-02T15:29:34.044Z,6.72
2023-03-02T15:32:01.201Z,7.20
2023-03-02T15:34:30.545Z,8.57
2023-03-02T15:36:57.258Z,9.88
2023-03-02T15:39:30.384Z,11.27
2023-03-02T15:41:57.498Z,11.60
2023-03-02T15:44:28.272Z,11.10
2023-03-02T15:49:25.029Z,8.45
2023-03-02T15:51:52.844Z,8.80
2023-03-02T15:54:19.952Z,7.80
2023-03-02T15:56:51.933Z,8.50
2023-03-02T15:59:26.961Z,8.18
2023-03-02T16:01:53.915Z,8.02
2023-03-02T16:04:20.490Z,9.40
2023-03-02T16:06:47.079Z,8.93
2023-03-02T16:09:13.895Z,9.55
2023-03-02T16:11:40.441Z,8.20
2023-03-02T16:14:06.941Z,8.80
2023-03-02T16:16:33.591Z,8.45
2023-03-02T16:19:00.160Z,8.40
2023-03-02T16:21:28.935Z,8.13
2023-03-02T16:24:02.810Z,8.95
2023-03-02T16:26:29.409Z,8.40
2023-03-02T16:28:55.951Z,8.40
2023-03-02T16:31:26.454Z,7.85
2023-03-02T16:33:54.970Z,8.55
2023-03-02T16:36:22.428Z,8.52
2023-03-02T16:38:49.089Z,8.27
2023-03-02T16:41:23.898Z,8.27
2023-03-02T16:43:54.159Z,8.60
2023-03-02T16:46:21.805Z,8.93
2023-03-02T16:48:49.109Z,9.10
2023-03-02T16:51:16.823Z,9.15
2023-03-02T16:53:43.736Z,9.52
2023-03-02T16:56:10.868Z,9.63
2023-03-02T16:58:39.581Z,9.20
2023-03-02T17:01:08.081Z,9.80
2023-03-02T17:03:35.263Z,10.27
2023-03-02T17:06:02.169Z,10.95
2023-03-02T17:08:28.876Z,10.18
2023-03-02T17:10:55.379Z,9.95
2023-03-02T17:13:21.939Z,10.48
2023-03-02T17:15:48.492Z,10.73
2023-03-02T17:18:15.202Z,9.95
2023-03-02T17:20:41.718Z,10.98
2023-03-02T17:23:08.415Z,11.23
2023-03-02T17:25:34.964Z,10.05
2023-03-02T17:28:01.527Z,10.48
2023-03-02T17:30:28.207Z,10.73
2023-03-02T17:32:54.808Z,11.55
2023-03-02T17:35:21.505Z,11.18
2023-03-02T17:37:48.275Z,10.52
2023-03-02T17:40:16.056Z,10.55
2023-03-02T17:42:42.905Z,11.02
2023-03-02T17:45:16.492Z,10.15
2023-03-02T17:47:43.274Z,10.55
2023-03-02T17:50:10.685Z,10.45
2023-03-02T17:52:37.180Z,11.68
2023-03-02T17:55:04.458Z,11.07
2023-03-02T17:57:31.033Z,10.77
2023-03-02T17:59:57.546Z,10.57
2023-03-02T18:02:24.101Z,11.13
2023-03-02T18:04:51.053Z,11.20
2023-03-02T18:07:17.622Z,11.80
2023-03-02T18:09:44.152Z,11.15
2023-03-02T18:12:10.653Z,11.07
2023-03-02T18:14:37.696Z,10.90
2023-03-02T18:17:07.413Z,11.25
2023-03-02T18:19:33.944Z,11.90
2023-03-02T18:24:47.403Z,11.82
2023-03-02T18:27:14.000Z,12.73
2023-03-02T18:29:40.561Z,11.63
2023-03-02T18:32:07.199Z,12.85
2023-03-02T18:34:33.966Z,13.65
2023-03-02T18:37:00.556Z,15.70
2023-03-02T18:39:27.171Z,17.40
2023-03-02T18:41:53.696Z,15.68
2023-03-02T18:44:20.611Z,17.30
2023-03-02T18:46:47.285Z,17.50
2023-03-02T18:49:14.056Z,17.70
2023-03-02T18:51:41.053Z,17.35
2023-03-02T18:54:07.970Z,16.98
2023-03-02T18:56:34.682Z,18.50
2023-03-02T18:59:01.901Z,18.48
2023-03-02T19:01:31.490Z,16.83
2023-03-02T19:03:59.164Z,18.45
2023-03-02T19:06:25.698Z,18.75
2023-03-02T19:08:52.232Z,18.23
2023-03-02T19:11:18.849Z,17.33
2023-03-02T19:13:45.423Z,18.17
2023-03-02T19:16:12.109Z,18.33
2023-03-02T19:18:39.023Z,16.25
2023-03-02T19:21:06.483Z,18.20
2023-03-02T19:23:33.103Z,18.20
2023-03-02T19:25:59.812Z,17.55
2023-03-02T19:28:27.436Z,17.10
2023-03-02T19:30:54.018Z,19.02
2023-03-02T19:33:20.553Z,19.92
2023-03-02T19:35:47.112Z,17.65
2023-03-02T19:38:14.428Z,18.05
2023-03-02T19:40:40.938Z,18.63
2023-03-02T19:43:07.770Z,18.52
2023-03-02T19:45:35.557Z,17.88
2023-03-02T19:48:03.494Z,19.00
2023-03-02T19:50:30.704Z,18.73
2023-03-02T19:52:58.637Z,18.95
2023-03-02T19:55:25.915Z,19.30
2023-03-02T19:57:56.434Z,17.38
2023-03-02T20:00:23.694Z,19.50
2023-03-02T20:02:50.238Z,21.05
2023-03-02T20:05:16.803Z,19.08
2023-03-02T20:07:43.328Z,20.42
2023-03-02T20:10:10.860Z,19.90
2023-03-02T20:12:37.482Z,20.38
2023-03-02T20:15:05.750Z,20.08
2023-03-02T20:17:32.448Z,20.27
2023-03-02T20:20:01.434Z,20.55
2023-03-02T20:22:27.971Z,21.23
2023-03-02T20:24:54.576Z,21.27
2023-03-02T20:27:21.181Z,21.27
2023-03-02T20:29:48.281Z,22.73
2023-03-02T20:32:14.987Z,22.25
2023-03-02T20:34:42.784Z,21.42
2023-03-02T20:37:10.375Z,22.00
2023-03-02T20:39:39.108Z,24.05
2023-03-02T20:42:06.717Z,22.17
2023-03-02T20:44:34.051Z,22.75
2023-03-02T20:47:03.417Z,24.08
2023-03-02T20:49:30.975Z,22.60
2023-03-02T20:51:59.437Z,24.52
2023-03-02T20:54:32.435Z,25.13
2023-03-02T20:56:59.452Z,24.80
2023-03-02T20:59:26.514Z,26.15
2023-03-02T21:01:53.343Z,25.90
2023-03-02T21:04:20.289Z,25.58
2023-03-02T21:06:46.971Z,26.80
2023-03-02T21:09:13.860Z,26.30
2023-03-02T21:11:40.857Z,27.50
2023-03-02T21:14:07.612Z,29.17
2023-03-02T21:16:38.681Z,27.15
2023-03-02T21:19:08.555Z,28.52
2023-03-02T21:21:41.889Z,27.20
2023-03-02T21:24:11.232Z,28.27
2023-03-02T21:26:38.734Z,29.48
2023-03-02T21:29:06.189Z,28.02
2023-03-02T21:31:32.906Z,29.83
2023-03-02T21:34:00.962Z,29.40
2023-03-02T21:36:28.106Z,29.70
2023-03-02T21:39:14.800Z,29.90
2023-03-02T21:42:10.580Z,31.17
2023-03-02T21:44:37.274Z,29.73
2023-03-02T21:47:03.863Z,31.65
2023-03-02T21:49:31.807Z,31.02
2023-03-02T21:51:58.353Z,31.73
2023-03-02T21:54:24.901Z,32.10
2023-03-02T21:56:51.443Z,32.38
2023-03-02T21:59:18.115Z,32.83
2023-03-02T22:01:44.686Z,33.15
2023-03-02T22:04:11.645Z,33.45
2023-03-02T22:06:38.972Z,34.53
2023-03-02T22:09:05.600Z,35.70
2023-03-02T22:11:35.811Z,33.15
2023-03-02T22:14:17.516Z,36.10
2023-03-02T22:16:47.192Z,35.28
2023-03-02T22:19:25.576Z,34.70
2023-03-02T22:21:55.353Z,33.75
2023-03-02T22:24:27.405Z,34.55
2023-03-02T22:26:58.970Z,37.85
2023-03-02T22:29:28.604Z,34.55
2023-03-02T22:31:57.127Z,35.88
2023-03-02T22:34:28.603Z,37.35
2023-03-02T22:37:00.243Z,35.28
2023-03-02T22:39:31.768Z,36.08
2023-03-02T22:42:10.878Z,36.95
2023-03-02T22:44:37.960Z,36.85
2023-03-02T22:47:19.314Z,36.38
2023-03-02T22:49:47.253Z,36.33
2023-03-02T22:52:22.999Z,39.53
2023-03-02T22:54:49.778Z,37.17
2023-03-02T22:57:30.073Z,40.33
2023-03-02T23:00:23.011Z,38.20
2023-03-02T23:02:50.328Z,39.92
2023-03-02T23:05:26.803Z,41.15
2023-03-02T23:07:59.698Z,41.42
2023-03-02T23:10:26.337Z,41.03
2023-03-02T23:12:53.074Z,39.72
2023-03-02T23:15:20.484Z,41.53
2023-03-02T23:17:47.079Z,41.20
2023-03-02T23:20:15.781Z,43.58
2023-03-02T23:22:43.219Z,40.83
2023-03-02T23:25:09.959Z,42.22
2023-03-02T23:27:36.467Z,44.40
2023-03-02T23:30:04.125Z,44.53
2023-03-02T23:32:30.730Z,44.00
2023-03-02T23:34:57.262Z,43.50
2023-03-02T23:37:23.844Z,43.92
2023-03-02T23:39:50.387Z,45.40
2023-03-02T23:42:16.886Z,44.45
2023-03-02T23:44:43.376Z,44.30
2023-03-02T23:47:10.016Z,43.83
2023-03-02T23:49:36.518Z,44.90
2023-03-02T23:52:03.524Z,44.78
2023-03-02T23:54:30.045Z,45.08
2023-03-02T23:56:56.516Z,45.95
2023-03-02T23:59:23.391Z,44.38
